Volgoneft-250 — UFQT — position and weather

sailwx.info

Track history (hours):
 
Tides and Currents Weather Stations Pressure Air Temp Water Temp Dewpoint Dewpoint Depression Visibility Wind Speed Wind Dir Waves Ship Positions

Volgoneft-250

Last reported at 2016-May-03 05:26 UTC. Time now 2016-May-04 23:11 UTC.
Position N 47°04' E 038°46'.

Length 132 m; draft 2.7 m.

Type: Tanker. MMSI: 273340600.

Date/timePositionNaut miles runAvg speedWind from/ knotsBaromVisibWave heightAir tempDewpointWater temp
2016-May-03 05:26N 47°04' E 038°46'7 7.6
2016-May-03 04:32N 47°00' E 038°38'8 7.9
2016-May-03 03:33N 47°00' E 038°26'8 8.1
2016-May-03 02:33N 47°00' E 038°14'8 8.1
2016-May-03 01:33N 46°57' E 038°04'8 8.0
2016-May-03 00:33N 46°54' E 037°52'9 8.4
2016-May-02 23:32N 46°52' E 037°40'8 8.0
2016-May-02 22:33N 46°48' E 037°30'64 8.6
2016-May-02 15:08N 45°48' E 036°58'5 8.4
2016-May-02 14:33N 45°44' E 036°55'8 8.3
2016-May-02 13:33N 45°36' E 036°51'8 8.1
2016-May-02 12:33N 45°29' E 036°47'8 8.0
2016-May-02 11:33N 45°22' E 036°40'7 6.9
2016-May-02 10:33N 45°19' E 036°32'7 6.7
2016-May-02 09:33N 45°12' E 036°29'2 0.7
2016-May-02 06:27N 45°11' E 036°31'0 0.0
2016-May-02 05:33N 45°11' E 036°31'5 4.4
2016-May-02 04:24N 45°07' E 036°35'0 0.3
2016-May-02 02:33N 45°06' E 036°35'0 0.0
2016-May-02 01:33N 45°06' E 036°35'0 0.0
2016-May-02 00:23N 45°06' E 036°35'0 0.0
2016-May-01 23:32N 45°06' E 036°35'0 0.0
2016-May-01 21:32N 45°06' E 036°35'0 0.0
2016-May-01 20:09N 45°06' E 036°35'0 0.0
2016-May-01 18:32N 45°06' E 036°35'0 0.0
2016-May-01 17:28N 45°06' E 036°35'2 1.1
2016-May-01 15:32N 45°07' E 036°32'7 3.4
2016-May-01 13:33N 45°13' E 036°28'6 6.3
2016-May-01 12:34N 45°19' E 036°33'6 6.3
2016-May-01 11:34N 45°22' E 036°40'5 4.9
2016-May-01 10:34N 45°27' E 036°43'1 1.5
2016-May-01 09:34N 45°28' E 036°44'0 0.0
2016-May-01 08:34N 45°28' E 036°44'0 0.0
2016-May-01 07:34N 45°28' E 036°44'0 0.0
2016-May-01 06:34N 45°28' E 036°44'0 0.0
2016-May-01 05:34N 45°28' E 036°44'0 0.0
2016-May-01 04:33N 45°28' E 036°44'0 0.0
2016-May-01 03:34N 45°28' E 036°44'0 0.0
2016-May-01 02:34N 45°28' E 036°44'0 0.0
2016-May-01 01:34N 45°28' E 036°44'0 0.0
2016-May-01 00:33N 45°28' E 036°44'0 0.0
2016-Apr-30 23:34N 45°28' E 036°44'0 0.1
2016-Apr-30 22:33N 45°28' E 036°44'0 0.0
2016-Apr-30 21:33N 45°28' E 036°44'0 0.0
2016-Apr-30 20:33N 45°28' E 036°44'0 0.0
2016-Apr-30 19:33N 45°28' E 036°44'0 0.0
2016-Apr-30 18:33N 45°28' E 036°44'0 0.0
2016-Apr-30 17:33N 45°28' E 036°44'0 0.0
2016-Apr-30 16:33N 45°28' E 036°44'0 0.0
2016-Apr-30 15:33N 45°28' E 036°44'0 0.0
2016-Apr-30 14:34N 45°28' E 036°44'0 0.0
2016-Apr-30 13:33N 45°28' E 036°44'0 0.0
2016-Apr-30 12:34N 45°28' E 036°44'0 0.0
2016-Apr-30 11:33N 45°28' E 036°44'0 0.0
2016-Apr-30 10:33N 45°28' E 036°44'0 0.0
2016-Apr-30 09:33N 45°28' E 036°44'0 0.0
2016-Apr-30 08:34N 45°28' E 036°44'0 0.0
2016-Apr-30 07:34N 45°28' E 036°44'0 0.0
2016-Apr-30 06:34N 45°28' E 036°44'0 0.0
2016-Apr-30 05:33N 45°28' E 036°44'0 0.0
2016-Apr-30 04:34N 45°28' E 036°44'0 0.0
2016-Apr-30 03:33N 45°28' E 036°44'0 0.0
2016-Apr-30 02:34N 45°28' E 036°44'0 0.0
2016-Apr-30 01:34N 45°28' E 036°44'0 0.0
2016-Apr-30 00:34N 45°28' E 036°44'0 0.0
2016-Apr-29 23:09N 45°28' E 036°44'0 0.0
2016-Apr-29 22:34N 45°28' E 036°44'0 0.0
2016-Apr-29 21:34N 45°28' E 036°44'0 0.0
2016-Apr-29 20:15N 45°28' E 036°44'0 0.0
2016-Apr-29 19:34N 45°28' E 036°44'0 0.0
2016-Apr-29 18:33N 45°28' E 036°44'0 0.0
2016-Apr-29 17:34N 45°28' E 036°44'0 0.0
2016-Apr-29 16:34N 45°28' E 036°44'0 0.0
2016-Apr-29 15:34N 45°28' E 036°44'0 0.0
2016-Apr-29 14:33N 45°28' E 036°44'0 0.0
2016-Apr-29 13:33N 45°28' E 036°44'0 0.0
2016-Apr-29 12:33N 45°28' E 036°44'0 0.0
2016-Apr-29 11:33N 45°28' E 036°44'0 0.0
2016-Apr-29 10:33N 45°28' E 036°44'0 0.0
2016-Apr-29 09:33N 45°28' E 036°44'0 0.0
2016-Apr-29 08:18N 45°28' E 036°44'0 0.0
2016-Apr-29 07:33N 45°28' E 036°44'0 0.0
2016-Apr-29 06:33N 45°28' E 036°44'0 0.0
2016-Apr-29 05:33N 45°28' E 036°44'0 0.0
2016-Apr-29 04:33N 45°28' E 036°44'0 0.0
2016-Apr-29 03:34N 45°28' E 036°44'0 0.0
2016-Apr-29 02:34N 45°28' E 036°44'0 0.0
2016-Apr-29 01:34N 45°28' E 036°44'0 0.0
2016-Apr-29 00:34N 45°28' E 036°44'0 0.0
2016-Apr-28 23:25N 45°28' E 036°44'0 0.0
2016-Apr-28 22:31N 45°28' E 036°44'0 0.0
2016-Apr-28 21:33N 45°28' E 036°44'0 0.1
2016-Apr-28 20:33N 45°28' E 036°44'0 0.0
2016-Apr-28 19:32N 45°28' E 036°44'0 0.0
2016-Apr-28 18:33N 45°28' E 036°44'0 0.0
2016-Apr-28 17:33N 45°28' E 036°44'0 0.0
2016-Apr-28 16:33N 45°28' E 036°44'0 0.0
2016-Apr-28 15:33N 45°28' E 036°44'0 0.0
2016-Apr-28 14:33N 45°28' E 036°44'0 0.0
2016-Apr-28 13:33N 45°28' E 036°44'0 0.0
2016-Apr-28 12:33N 45°28' E 036°44'0 0.0
2016-Apr-28 11:32N 45°28' E 036°44'0 0.0
2016-Apr-28 10:33N 45°28' E 036°44'0 0.0
2016-Apr-28 09:21N 45°28' E 036°44'0 0.0
2016-Apr-28 08:33N 45°28' E 036°44'0 0.0
2016-Apr-28 07:33N 45°28' E 036°44'0 0.0
2016-Apr-28 06:33N 45°28' E 036°44'0 0.0
2016-Apr-28 05:33N 45°28' E 036°44'0 0.0
2016-Apr-28 04:32N 45°28' E 036°44'0 0.0
2016-Apr-28 03:33N 45°28' E 036°44'0 0.0
2016-Apr-28 02:33N 45°28' E 036°44'0 0.0
2016-Apr-28 01:33N 45°28' E 036°44'0 0.0
2016-Apr-28 00:34N 45°28' E 036°44'0 0.0
2016-Apr-27 23:26N 45°28' E 036°44'0 0.0
2016-Apr-27 21:32N 45°28' E 036°44'0 0.0
2016-Apr-27 19:29N 45°28' E 036°44'0 0.0
2016-Apr-27 18:33N 45°28' E 036°44'0 0.0
2016-Apr-27 17:32N 45°28' E 036°44'0 0.0
2016-Apr-27 16:32N 45°28' E 036°44'0 0.0
2016-Apr-27 15:33N 45°28' E 036°44'0 0.0
2016-Apr-27 14:33N 45°28' E 036°44'0 0.0
2016-Apr-27 13:33N 45°28' E 036°44'0 0.0
2016-Apr-27 12:33N 45°28' E 036°44'0 0.0
2016-Apr-27 11:33N 45°28' E 036°44'0 0.0
2016-Apr-27 10:33N 45°28' E 036°44'0 0.0
2016-Apr-27 09:33N 45°28' E 036°44'0 0.0
2016-Apr-27 08:33N 45°28' E 036°44'0 0.0
2016-Apr-27 07:33N 45°28' E 036°44'0 0.0
2016-Apr-27 06:33N 45°28' E 036°44'0 0.0
2016-Apr-27 05:33N 45°28' E 036°44'0 0.0
2016-Apr-27 04:32N 45°28' E 036°44'0 0.0
2016-Apr-27 03:33N 45°28' E 036°44'0 0.0
2016-Apr-27 02:33N 45°28' E 036°44'0 0.0
2016-Apr-27 01:33N 45°28' E 036°44'0 0.0
2016-Apr-27 00:33N 45°28' E 036°44'0 0.1
2016-Apr-26 23:33N 45°28' E 036°44'0 0.0
2016-Apr-26 22:33N 45°28' E 036°44'0 0.0
2016-Apr-26 21:33N 45°28' E 036°44'0 0.0
2016-Apr-26 20:33N 45°28' E 036°44'0 0.0
2016-Apr-26 19:33N 45°28' E 036°44'0 0.1
2016-Apr-26 18:33N 45°28' E 036°44'0 0.1
2016-Apr-26 17:33N 45°28' E 036°44'0 0.0
2016-Apr-26 16:33N 45°28' E 036°44'  
Track history (hours):
 
Tides and Currents Weather Stations Pressure Air Temp Water Temp Dewpoint Dewpoint Depression Visibility Wind Speed Wind Dir Waves Ship Positions

Volgoneft-250

Last reported at 2016-May-03 05:26 UTC. Time now 2016-May-04 23:11 UTC.
Position N 47°04' E 038°46'.

Length 132 m; draft 2.7 m.

Type: Tanker. MMSI: 273340600.

Date/timePositionNaut miles runAvg speedWind from/ knotsBaromVisibWave heightAir tempDewpointWater temp
2016-May-03 05:26N 47°04' E 038°46'7 7.6
2016-May-03 04:32N 47°00' E 038°38'8 7.9
2016-May-03 03:33N 47°00' E 038°26'8 8.1
2016-May-03 02:33N 47°00' E 038°14'8 8.1
2016-May-03 01:33N 46°57' E 038°04'8 8.0
2016-May-03 00:33N 46°54' E 037°52'9 8.4
2016-May-02 23:32N 46°52' E 037°40'8 8.0
2016-May-02 22:33N 46°48' E 037°30'64 8.6
2016-May-02 15:08N 45°48' E 036°58'5 8.4
2016-May-02 14:33N 45°44' E 036°55'8 8.3
2016-May-02 13:33N 45°36' E 036°51'8 8.1
2016-May-02 12:33N 45°29' E 036°47'8 8.0
2016-May-02 11:33N 45°22' E 036°40'7 6.9
2016-May-02 10:33N 45°19' E 036°32'7 6.7
2016-May-02 09:33N 45°12' E 036°29'2 0.7
2016-May-02 06:27N 45°11' E 036°31'0 0.0
2016-May-02 05:33N 45°11' E 036°31'5 4.4
2016-May-02 04:24N 45°07' E 036°35'0 0.3
2016-May-02 02:33N 45°06' E 036°35'0 0.0
2016-May-02 01:33N 45°06' E 036°35'0 0.0
2016-May-02 00:23N 45°06' E 036°35'0 0.0
2016-May-01 23:32N 45°06' E 036°35'0 0.0
2016-May-01 21:32N 45°06' E 036°35'0 0.0
2016-May-01 20:09N 45°06' E 036°35'0 0.0
2016-May-01 18:32N 45°06' E 036°35'0 0.0
2016-May-01 17:28N 45°06' E 036°35'2 1.1
2016-May-01 15:32N 45°07' E 036°32'7 3.4
2016-May-01 13:33N 45°13' E 036°28'6 6.3
2016-May-01 12:34N 45°19' E 036°33'6 6.3
2016-May-01 11:34N 45°22' E 036°40'5 4.9
2016-May-01 10:34N 45°27' E 036°43'1 1.5
2016-May-01 09:34N 45°28' E 036°44'0 0.0
2016-May-01 08:34N 45°28' E 036°44'0 0.0
2016-May-01 07:34N 45°28' E 036°44'0 0.0
2016-May-01 06:34N 45°28' E 036°44'0 0.0
2016-May-01 05:34N 45°28' E 036°44'0 0.0
2016-May-01 04:33N 45°28' E 036°44'0 0.0
2016-May-01 03:34N 45°28' E 036°44'0 0.0
2016-May-01 02:34N 45°28' E 036°44'0 0.0
2016-May-01 01:34N 45°28' E 036°44'0 0.0
2016-May-01 00:33N 45°28' E 036°44'0 0.0
2016-Apr-30 23:34N 45°28' E 036°44'0 0.1
2016-Apr-30 22:33N 45°28' E 036°44'0 0.0
2016-Apr-30 21:33N 45°28' E 036°44'0 0.0
2016-Apr-30 20:33N 45°28' E 036°44'0 0.0
2016-Apr-30 19:33N 45°28' E 036°44'0 0.0
2016-Apr-30 18:33N 45°28' E 036°44'0 0.0
2016-Apr-30 17:33N 45°28' E 036°44'0 0.0
2016-Apr-30 16:33N 45°28' E 036°44'0 0.0
2016-Apr-30 15:33N 45°28' E 036°44'0 0.0
2016-Apr-30 14:34N 45°28' E 036°44'0 0.0
2016-Apr-30 13:33N 45°28' E 036°44'0 0.0
2016-Apr-30 12:34N 45°28' E 036°44'0 0.0
2016-Apr-30 11:33N 45°28' E 036°44'0 0.0
2016-Apr-30 10:33N 45°28' E 036°44'0 0.0
2016-Apr-30 09:33N 45°28' E 036°44'0 0.0
2016-Apr-30 08:34N 45°28' E 036°44'0 0.0
2016-Apr-30 07:34N 45°28' E 036°44'0 0.0
2016-Apr-30 06:34N 45°28' E 036°44'0 0.0
2016-Apr-30 05:33N 45°28' E 036°44'0 0.0
2016-Apr-30 04:34N 45°28' E 036°44'0 0.0
2016-Apr-30 03:33N 45°28' E 036°44'0 0.0
2016-Apr-30 02:34N 45°28' E 036°44'0 0.0
2016-Apr-30 01:34N 45°28' E 036°44'0 0.0
2016-Apr-30 00:34N 45°28' E 036°44'0 0.0
2016-Apr-29 23:09N 45°28' E 036°44'0 0.0
2016-Apr-29 22:34N 45°28' E 036°44'0 0.0
2016-Apr-29 21:34N 45°28' E 036°44'0 0.0
2016-Apr-29 20:15N 45°28' E 036°44'0 0.0
2016-Apr-29 19:34N 45°28' E 036°44'0 0.0
2016-Apr-29 18:33N 45°28' E 036°44'0 0.0
2016-Apr-29 17:34N 45°28' E 036°44'0 0.0
2016-Apr-29 16:34N 45°28' E 036°44'0 0.0
2016-Apr-29 15:34N 45°28' E 036°44'0 0.0
2016-Apr-29 14:33N 45°28' E 036°44'0 0.0
2016-Apr-29 13:33N 45°28' E 036°44'0 0.0
2016-Apr-29 12:33N 45°28' E 036°44'0 0.0
2016-Apr-29 11:33N 45°28' E 036°44'0 0.0
2016-Apr-29 10:33N 45°28' E 036°44'0 0.0
2016-Apr-29 09:33N 45°28' E 036°44'0 0.0
2016-Apr-29 08:18N 45°28' E 036°44'0 0.0
2016-Apr-29 07:33N 45°28' E 036°44'0 0.0
2016-Apr-29 06:33N 45°28' E 036°44'0 0.0
2016-Apr-29 05:33N 45°28' E 036°44'0 0.0
2016-Apr-29 04:33N 45°28' E 036°44'0 0.0
2016-Apr-29 03:34N 45°28' E 036°44'0 0.0
2016-Apr-29 02:34N 45°28' E 036°44'0 0.0
2016-Apr-29 01:34N 45°28' E 036°44'0 0.0
2016-Apr-29 00:34N 45°28' E 036°44'0 0.0
2016-Apr-28 23:25N 45°28' E 036°44'0 0.0
2016-Apr-28 22:31N 45°28' E 036°44'0 0.0
2016-Apr-28 21:33N 45°28' E 036°44'0 0.1
2016-Apr-28 20:33N 45°28' E 036°44'0 0.0
2016-Apr-28 19:32N 45°28' E 036°44'0 0.0
2016-Apr-28 18:33N 45°28' E 036°44'0 0.0
2016-Apr-28 17:33N 45°28' E 036°44'0 0.0
2016-Apr-28 16:33N 45°28' E 036°44'0 0.0
2016-Apr-28 15:33N 45°28' E 036°44'0 0.0
2016-Apr-28 14:33N 45°28' E 036°44'0 0.0
2016-Apr-28 13:33N 45°28' E 036°44'0 0.0
2016-Apr-28 12:33N 45°28' E 036°44'0 0.0
2016-Apr-28 11:32N 45°28' E 036°44'0 0.0
2016-Apr-28 10:33N 45°28' E 036°44'0 0.0
2016-Apr-28 09:21N 45°28' E 036°44'0 0.0
2016-Apr-28 08:33N 45°28' E 036°44'0 0.0
2016-Apr-28 07:33N 45°28' E 036°44'0 0.0
2016-Apr-28 06:33N 45°28' E 036°44'0 0.0
2016-Apr-28 05:33N 45°28' E 036°44'0 0.0
2016-Apr-28 04:32N 45°28' E 036°44'0 0.0
2016-Apr-28 03:33N 45°28' E 036°44'0 0.0
2016-Apr-28 02:33N 45°28' E 036°44'0 0.0
2016-Apr-28 01:33N 45°28' E 036°44'0 0.0
2016-Apr-28 00:34N 45°28' E 036°44'0 0.0
2016-Apr-27 23:26N 45°28' E 036°44'0 0.0
2016-Apr-27 21:32N 45°28' E 036°44'0 0.0
2016-Apr-27 19:29N 45°28' E 036°44'0 0.0
2016-Apr-27 18:33N 45°28' E 036°44'0 0.0
2016-Apr-27 17:32N 45°28' E 036°44'0 0.0
2016-Apr-27 16:32N 45°28' E 036°44'0 0.0
2016-Apr-27 15:33N 45°28' E 036°44'0 0.0
2016-Apr-27 14:33N 45°28' E 036°44'0 0.0
2016-Apr-27 13:33N 45°28' E 036°44'0 0.0
2016-Apr-27 12:33N 45°28' E 036°44'0 0.0
2016-Apr-27 11:33N 45°28' E 036°44'0 0.0
2016-Apr-27 10:33N 45°28' E 036°44'0 0.0
2016-Apr-27 09:33N 45°28' E 036°44'0 0.0
2016-Apr-27 08:33N 45°28' E 036°44'0 0.0
2016-Apr-27 07:33N 45°28' E 036°44'0 0.0
2016-Apr-27 06:33N 45°28' E 036°44'0 0.0
2016-Apr-27 05:33N 45°28' E 036°44'0 0.0
2016-Apr-27 04:32N 45°28' E 036°44'0 0.0
2016-Apr-27 03:33N 45°28' E 036°44'0 0.0
2016-Apr-27 02:33N 45°28' E 036°44'0 0.0
2016-Apr-27 01:33N 45°28' E 036°44'0 0.0
2016-Apr-27 00:33N 45°28' E 036°44'0 0.1
2016-Apr-26 23:33N 45°28' E 036°44'0 0.0
2016-Apr-26 22:33N 45°28' E 036°44'0 0.0
2016-Apr-26 21:33N 45°28' E 036°44'0 0.0
2016-Apr-26 20:33N 45°28' E 036°44'0 0.0
2016-Apr-26 19:33N 45°28' E 036°44'0 0.1
2016-Apr-26 18:33N 45°28' E 036°44'0 0.1
2016-Apr-26 17:33N 45°28' E 036°44'0 0.0
2016-Apr-26 16:33N 45°28' E 036°44'  

Dump ship's entire track history